Ashland City, Tennessee
Current Conditions -  °F | °C
As of 10:35 PM on Wednesday 26 Nov 2014 (Local Time) from KM91 Reporting Station
Overcast Overcast  
Wind Chill: 32°   Ceiling: 3400
Heat Index: 39°   Visibility: 10mi
Dew Point: 36°   Wind: 13mph
Humidity: 87%   Direction: 290°WNW
Pressure: 30.05"   Gusts: NA
Location:  36.27°N, 87.06°W
Report Text: KM91 270435Z AUTO 29011KT 10SM FEW017 OVC034 04/02 A3005 RMK
Loading
Personal Weather Stations






























Interactive Weather Map New forecast layout! Learn more

10-Day Weather Forecast

Advertisements
Track Severe Weather on mobile